createdAt,value
2024-05-09T00:00:36.264Z,17.11
2024-05-09T00:01:30.731Z,17.04
2024-05-09T00:02:30.775Z,17.01
2024-05-09T00:03:30.727Z,17.01
2024-05-09T00:04:30.675Z,17.01
2024-05-09T00:05:30.722Z,17.04
2024-05-09T00:06:30.649Z,17.00
2024-05-09T00:07:30.648Z,17.01
2024-05-09T00:08:30.826Z,16.98
2024-05-09T00:09:30.638Z,17.01
2024-05-09T00:10:36.113Z,16.86
2024-05-09T00:11:30.692Z,16.88
2024-05-09T00:12:30.741Z,16.91
2024-05-09T00:13:30.640Z,16.85
2024-05-09T00:14:30.750Z,16.86
2024-05-09T00:15:30.643Z,16.82
2024-05-09T00:16:30.635Z,16.76
2024-05-09T00:17:30.810Z,16.66
2024-05-09T00:18:30.697Z,16.63
2024-05-09T00:19:30.714Z,16.70
2024-05-09T00:20:38.207Z,16.63
2024-05-09T00:21:30.622Z,16.61
2024-05-09T00:22:30.627Z,16.61
2024-05-09T00:23:30.694Z,16.58
2024-05-09T00:24:30.620Z,16.61
2024-05-09T00:25:30.630Z,16.61
2024-05-09T00:26:30.727Z,16.63
2024-05-09T00:27:30.629Z,16.66
2024-05-09T00:28:30.631Z,16.61
2024-05-09T00:29:30.698Z,16.61
2024-05-09T00:30:35.224Z,16.61
2024-05-09T00:31:30.610Z,16.61
2024-05-09T00:32:30.768Z,16.63
2024-05-09T00:33:30.918Z,16.58
2024-05-09T00:34:30.685Z,16.58
2024-05-09T00:35:30.890Z,16.60
2024-05-09T00:36:30.607Z,16.64
2024-05-09T00:37:30.622Z,16.64
2024-05-09T00:38:30.747Z,16.60
2024-05-09T00:39:30.608Z,16.57
2024-05-09T00:40:38.277Z,16.61
2024-05-09T00:41:30.607Z,16.60
2024-05-09T00:42:30.606Z,16.61
2024-05-09T00:43:30.596Z,16.60
2024-05-09T00:44:30.692Z,16.63
2024-05-09T00:45:30.602Z,16.60
2024-05-09T00:46:30.590Z,16.58
2024-05-09T00:47:30.864Z,16.57
2024-05-09T00:48:30.816Z,16.60
2024-05-09T00:49:30.757Z,16.56
2024-05-09T00:50:36.131Z,16.57
2024-05-09T00:51:30.594Z,16.50
2024-05-09T00:52:30.586Z,16.52
2024-05-09T00:53:30.743Z,16.53
2024-05-09T00:54:30.578Z,16.57
2024-05-09T00:55:30.598Z,16.53
2024-05-09T00:56:30.618Z,16.49
2024-05-09T00:57:30.580Z,16.56
2024-05-09T00:58:30.610Z,16.56
2024-05-09T00:59:30.648Z,16.48
2024-05-09T01:00:35.892Z,16.46
2024-05-09T01:01:30.611Z,16.50
2024-05-09T01:02:30.635Z,16.52
2024-05-09T01:03:30.796Z,16.56
2024-05-09T01:04:30.603Z,16.49
2024-05-09T01:05:30.594Z,16.50
2024-05-09T01:06:30.564Z,16.52
2024-05-09T01:07:30.564Z,16.45
2024-05-09T01:08:30.767Z,16.46
2024-05-09T01:09:30.563Z,16.56
2024-05-09T01:10:34.648Z,16.52
2024-05-09T01:11:30.663Z,16.50
2024-05-09T01:12:30.715Z,16.48
2024-05-09T01:13:30.557Z,16.45
2024-05-09T01:14:30.679Z,16.45
2024-05-09T01:15:30.592Z,16.38
2024-05-09T01:16:30.560Z,16.39
2024-05-09T01:17:30.773Z,16.34
2024-05-09T01:18:30.763Z,16.42
2024-05-09T01:19:30.670Z,16.43
2024-05-09T01:20:37.528Z,16.38
2024-05-09T01:21:30.543Z,16.43
2024-05-09T01:22:30.539Z,16.34
2024-05-09T01:23:30.762Z,16.35
2024-05-09T01:24:30.579Z,16.17
2024-05-09T01:25:30.537Z,16.12
2024-05-09T01:26:30.652Z,16.20
2024-05-09T01:27:30.545Z,16.08
2024-05-09T01:28:30.540Z,16.05
2024-05-09T01:29:30.647Z,16.17
2024-05-09T01:30:34.552Z,16.12
2024-05-09T01:31:30.561Z,16.12
2024-05-09T01:32:30.722Z,16.20
2024-05-09T01:33:30.738Z,16.11
2024-05-09T01:34:30.521Z,16.09
2024-05-09T01:35:30.630Z,16.12
2024-05-09T01:36:30.533Z,16.08
2024-05-09T01:37:30.527Z,16.09
2024-05-09T01:38:30.664Z,16.11
2024-05-09T01:39:30.513Z,16.09
2024-05-09T01:41:30.569Z,16.09
2024-05-09T01:42:30.511Z,16.05
2024-05-09T01:43:30.832Z,16.08
2024-05-09T01:44:30.581Z,16.01
2024-05-09T01:45:30.517Z,16.02
2024-05-09T01:46:30.505Z,15.97
2024-05-09T01:47:30.843Z,16.04
2024-05-09T01:48:30.592Z,15.96
2024-05-09T01:49:30.618Z,15.97
2024-05-09T01:50:37.735Z,16.02
2024-05-09T01:51:30.494Z,16.04
2024-05-09T01:52:30.510Z,15.96
2024-05-09T01:53:30.595Z,15.97
2024-05-09T01:54:30.485Z,16.00
2024-05-09T01:55:30.812Z,15.94
2024-05-09T01:56:30.782Z,15.92
2024-05-09T01:57:30.496Z,15.97
2024-05-09T01:58:30.499Z,15.93
2024-05-09T01:59:30.514Z,15.92
2024-05-09T02:00:38.094Z,15.87
2024-05-09T02:01:30.605Z,15.86
2024-05-09T02:02:30.574Z,15.82
2024-05-09T02:03:30.637Z,15.80
2024-05-09T02:04:30.716Z,15.76
2024-05-09T02:05:30.503Z,15.76
2024-05-09T02:06:30.473Z,15.74
2024-05-09T02:07:30.556Z,15.78
2024-05-09T02:08:30.560Z,15.75
2024-05-09T02:09:30.466Z,15.71
2024-05-09T02:10:32.928Z,15.72
2024-05-09T02:11:30.527Z,15.89
2024-05-09T02:12:30.602Z,15.86
2024-05-09T02:13:30.458Z,15.84
2024-05-09T02:14:30.554Z,15.83
2024-05-09T02:15:30.451Z,15.90
2024-05-09T02:16:30.451Z,15.89
2024-05-09T02:17:30.675Z,15.94
2024-05-09T02:18:30.518Z,15.89
2024-05-09T02:19:30.551Z,15.90
2024-05-09T02:20:35.934Z,15.86
2024-05-09T02:21:30.453Z,15.86
2024-05-09T02:22:30.461Z,15.67
2024-05-09T02:23:30.536Z,15.68
2024-05-09T02:24:30.458Z,15.68
2024-05-09T02:25:30.479Z,15.68
2024-05-09T02:26:30.485Z,15.68
2024-05-09T02:27:30.445Z,15.69
2024-05-09T02:28:30.439Z,15.62
2024-05-09T02:29:30.497Z,15.71
2024-05-09T02:30:38.530Z,15.65
2024-05-09T02:31:30.429Z,15.75
2024-05-09T02:32:30.642Z,15.68
2024-05-09T02:33:30.677Z,15.71
2024-05-09T02:34:30.464Z,15.78
2024-05-09T02:35:30.528Z,15.67
2024-05-09T02:36:30.437Z,15.76
2024-05-09T02:37:30.418Z,15.65
2024-05-09T02:38:30.604Z,15.69
2024-05-09T02:39:30.436Z,15.67
2024-05-09T02:41:30.464Z,15.62
2024-05-09T02:42:30.410Z,15.68
2024-05-09T02:43:30.405Z,15.71
2024-05-09T02:44:30.502Z,15.68
2024-05-09T02:45:30.433Z,15.68
2024-05-09T02:46:30.403Z,15.68
2024-05-09T02:47:30.683Z,15.71
2024-05-09T02:48:30.502Z,15.74
2024-05-09T02:49:30.530Z,15.67
2024-05-09T02:50:37.371Z,15.64
2024-05-09T02:51:30.400Z,15.64
2024-05-09T02:52:30.601Z,15.65
2024-05-09T02:53:30.502Z,15.64
2024-05-09T02:54:30.392Z,15.60
2024-05-09T02:55:30.410Z,15.56
2024-05-09T02:56:30.466Z,15.54
2024-05-09T02:57:30.385Z,15.57
2024-05-09T02:58:30.384Z,15.46
2024-05-09T02:59:30.500Z,15.50
2024-05-09T03:00:37.944Z,15.49
2024-05-09T03:01:30.428Z,15.46
2024-05-09T03:02:30.508Z,15.46
2024-05-09T03:03:30.716Z,15.41
2024-05-09T03:04:30.416Z,15.43
2024-05-09T03:05:30.394Z,15.39
2024-05-09T03:06:30.367Z,15.43
2024-05-09T03:07:30.366Z,15.38
2024-05-09T03:08:30.441Z,15.46
2024-05-09T03:09:30.363Z,15.36
2024-05-09T03:10:35.688Z,15.35
2024-05-09T03:11:30.509Z,15.41
2024-05-09T03:12:30.371Z,15.36
2024-05-09T03:13:30.354Z,15.29
2024-05-09T03:14:30.411Z,15.31
2024-05-09T03:15:30.346Z,15.31
2024-05-09T03:16:30.351Z,15.32
2024-05-09T03:17:30.605Z,15.32
2024-05-09T03:18:30.444Z,15.35
2024-05-09T03:19:30.457Z,15.31
2024-05-09T03:20:33.836Z,15.34
2024-05-09T03:21:30.345Z,15.35
2024-05-09T03:22:30.335Z,15.28
2024-05-09T03:23:30.379Z,15.34
2024-05-09T03:24:30.338Z,15.29
2024-05-09T03:25:30.347Z,15.25
2024-05-09T03:26:30.404Z,15.20
2024-05-09T03:27:30.329Z,15.14
2024-05-09T03:28:30.349Z,15.27
2024-05-09T03:29:30.475Z,15.20
2024-05-09T03:30:39.170Z,15.23
2024-05-09T03:31:30.340Z,15.25
2024-05-09T03:32:30.475Z,15.11
2024-05-09T03:33:30.721Z,15.10
2024-05-09T03:34:30.340Z,15.10
2024-05-09T03:35:30.337Z,15.17
2024-05-09T03:36:30.316Z,15.11
2024-05-09T03:37:30.318Z,15.09
2024-05-09T03:38:30.360Z,15.17
2024-05-09T03:39:30.303Z,15.11
2024-05-09T03:40:31.163Z,15.07
2024-05-09T03:41:30.490Z,15.16
2024-05-09T03:42:30.303Z,15.16
2024-05-09T03:43:30.302Z,15.13
2024-05-09T03:44:30.462Z,15.03
2024-05-09T03:45:30.301Z,15.02
2024-05-09T03:46:30.291Z,15.16
2024-05-09T03:47:30.451Z,15.01
2024-05-09T03:48:30.320Z,14.91
2024-05-09T03:49:30.360Z,14.91
2024-05-09T03:50:35.225Z,14.92
2024-05-09T03:51:30.293Z,14.91
2024-05-09T03:52:30.286Z,14.96
2024-05-09T03:53:30.312Z,14.94
2024-05-09T03:54:30.280Z,15.02
2024-05-09T03:55:30.274Z,15.02
2024-05-09T03:56:30.365Z,15.01
2024-05-09T03:57:30.271Z,14.96
2024-05-09T03:58:30.268Z,14.92
2024-05-09T03:59:30.316Z,14.88
2024-05-09T04:00:36.920Z,14.91
2024-05-09T04:01:30.451Z,14.72
2024-05-09T04:02:30.423Z,14.73
2024-05-09T04:03:30.463Z,14.78
2024-05-09T04:04:30.350Z,14.77
2024-05-09T04:05:30.396Z,14.81
2024-05-09T04:06:30.264Z,14.89
2024-05-09T04:07:30.255Z,14.92
2024-05-09T04:08:30.292Z,14.92
2024-05-09T04:09:30.246Z,14.96
2024-05-09T04:10:33.677Z,14.99
2024-05-09T04:11:30.308Z,15.02
2024-05-09T04:12:30.294Z,15.09
2024-05-09T04:13:30.260Z,15.13
2024-05-09T04:14:30.340Z,15.06
2024-05-09T04:15:30.273Z,15.16
2024-05-09T04:16:30.231Z,15.09
2024-05-09T04:17:30.433Z,15.13
2024-05-09T04:18:30.350Z,15.11
2024-05-09T04:19:30.327Z,15.13
2024-05-09T04:20:37.470Z,15.13
2024-05-09T04:21:30.230Z,15.10
2024-05-09T04:22:30.222Z,15.20
2024-05-09T04:23:30.338Z,15.14
2024-05-09T04:24:30.216Z,15.21
2024-05-09T04:25:30.217Z,15.20
2024-05-09T04:26:30.340Z,15.21
2024-05-09T04:27:30.229Z,15.19
2024-05-09T04:28:30.224Z,15.16
2024-05-09T04:29:30.291Z,15.29
2024-05-09T04:30:36.931Z,15.32
2024-05-09T04:31:30.215Z,15.28
2024-05-09T04:32:30.348Z,15.31
2024-05-09T04:33:30.832Z,15.34
2024-05-09T04:34:30.310Z,15.41
2024-05-09T04:35:30.317Z,15.34
2024-05-09T04:36:30.195Z,15.29
2024-05-09T04:37:30.215Z,15.34
2024-05-09T04:38:30.306Z,15.31
2024-05-09T04:39:30.194Z,15.34
2024-05-09T04:40:34.271Z,15.27
2024-05-09T04:41:30.238Z,15.29
2024-05-09T04:42:30.185Z,15.31
2024-05-09T04:43:30.223Z,15.31
2024-05-09T04:44:30.239Z,15.32
2024-05-09T04:45:30.193Z,15.32
2024-05-09T04:46:30.167Z,15.29
2024-05-09T04:47:30.388Z,15.31
2024-05-09T04:48:30.275Z,15.31
2024-05-09T04:49:30.231Z,15.28
2024-05-09T04:50:36.618Z,15.32
2024-05-09T04:51:30.186Z,15.31
2024-05-09T04:52:30.157Z,15.29
2024-05-09T04:53:30.265Z,15.31
2024-05-09T04:54:36.026Z,15.29
2024-05-09T04:55:30.240Z,15.29
2024-05-09T04:56:30.225Z,15.41
2024-05-09T04:57:30.154Z,15.35
2024-05-09T04:58:30.151Z,15.41
2024-05-09T04:59:30.260Z,15.41
2024-05-09T05:00:36.045Z,15.51
2024-05-09T05:01:30.258Z,15.46
2024-05-09T05:02:30.231Z,15.47
2024-05-09T05:03:30.288Z,15.47
2024-05-09T05:04:30.242Z,15.50
2024-05-09T05:05:30.206Z,15.53
2024-05-09T05:06:30.159Z,15.57
2024-05-09T05:07:30.131Z,15.53
2024-05-09T05:08:30.179Z,15.65
2024-05-09T05:09:30.131Z,15.57
2024-05-09T05:10:35.740Z,15.64
2024-05-09T05:11:30.201Z,15.57
2024-05-09T05:12:30.238Z,15.60
2024-05-09T05:13:30.130Z,15.65
2024-05-09T05:14:30.257Z,15.62
2024-05-09T05:15:30.120Z,15.56
2024-05-09T05:16:30.388Z,15.60
2024-05-09T05:17:30.301Z,15.62
2024-05-09T05:18:30.196Z,15.62
2024-05-09T05:19:30.266Z,15.71
2024-05-09T05:20:33.643Z,15.59
2024-05-09T05:21:30.271Z,15.67
2024-05-09T05:22:30.106Z,15.74
2024-05-09T05:23:30.251Z,15.72
2024-05-09T05:24:30.095Z,15.76
2024-05-09T05:25:30.099Z,15.86
2024-05-09T05:26:30.164Z,15.87
2024-05-09T05:27:30.100Z,15.86
2024-05-09T05:28:30.089Z,15.94
2024-05-09T05:29:30.132Z,15.92
2024-05-09T05:30:34.498Z,15.93
2024-05-09T05:31:30.116Z,15.92
2024-05-09T05:32:30.240Z,15.96
2024-05-09T05:33:30.230Z,15.87
2024-05-09T05:34:30.076Z,15.89
2024-05-09T05:35:30.285Z,15.90
2024-05-09T05:36:30.076Z,15.92
2024-05-09T05:37:30.081Z,15.94
2024-05-09T05:38:30.110Z,15.96
2024-05-09T05:39:30.067Z,15.97
2024-05-09T05:40:36.284Z,16.04
2024-05-09T05:41:30.150Z,16.05
2024-05-09T05:42:30.066Z,16.14
2024-05-09T05:43:30.093Z,16.20
2024-05-09T05:44:30.122Z,16.07
2024-05-09T05:45:30.079Z,16.17
2024-05-09T05:46:30.065Z,16.17
2024-05-09T05:47:30.218Z,16.15
2024-05-09T05:48:30.135Z,16.21
2024-05-09T05:49:30.119Z,16.17
2024-05-09T05:50:35.556Z,16.34
2024-05-09T05:51:30.049Z,16.24
2024-05-09T05:52:30.042Z,16.27
2024-05-09T05:53:30.078Z,16.35
2024-05-09T05:54:30.068Z,16.39
2024-05-09T05:55:30.058Z,16.41
2024-05-09T05:56:30.082Z,16.49
2024-05-09T05:57:30.067Z,16.56
2024-05-09T05:58:30.049Z,16.60
2024-05-09T05:59:30.106Z,16.57
2024-05-09T06:00:37.476Z,16.66
2024-05-09T06:01:30.099Z,16.66
2024-05-09T06:02:30.136Z,16.66
2024-05-09T06:03:30.502Z,16.64
2024-05-09T06:04:30.104Z,16.78
2024-05-09T06:05:30.102Z,16.64
2024-05-09T06:06:30.022Z,16.66
2024-05-09T06:07:30.033Z,16.64
2024-05-09T06:08:30.636Z,16.76
2024-05-09T06:09:30.015Z,16.76
2024-05-09T06:10:37.584Z,16.81
2024-05-09T06:11:30.077Z,16.79
2024-05-09T06:12:30.065Z,16.91
2024-05-09T06:13:30.011Z,16.85
2024-05-09T06:14:30.227Z,16.88
2024-05-09T06:15:30.325Z,16.86
2024-05-09T06:16:30.019Z,17.03
2024-05-09T06:17:30.155Z,17.03
2024-05-09T06:18:30.426Z,17.00
2024-05-09T06:19:30.368Z,17.16
2024-05-09T06:20:35.364Z,17.16
2024-05-09T06:21:30.008Z,17.14
2024-05-09T06:22:30.042Z,17.21
2024-05-09T06:23:30.027Z,17.23
2024-05-09T06:24:29.997Z,17.34
2024-05-09T06:25:30.002Z,17.36
2024-05-09T06:26:30.098Z,17.30
2024-05-09T06:27:29.989Z,17.34
2024-05-09T06:28:29.993Z,17.37
2024-05-09T06:29:30.059Z,17.38
2024-05-09T06:30:37.205Z,17.37
2024-05-09T06:31:29.988Z,17.46
2024-05-09T06:32:30.102Z,17.41
2024-05-09T06:33:30.284Z,17.55
2024-05-09T06:34:30.153Z,17.55
2024-05-09T06:35:30.220Z,17.70
2024-05-09T06:36:29.998Z,17.63
2024-05-09T06:37:29.978Z,17.66
2024-05-09T06:38:30.053Z,17.66
2024-05-09T06:39:29.988Z,17.54
2024-05-09T06:40:36.738Z,17.59
2024-05-09T06:41:30.061Z,17.63
2024-05-09T06:42:29.966Z,17.72
2024-05-09T06:43:29.967Z,17.77
2024-05-09T06:44:30.116Z,17.82
2024-05-09T06:45:30.001Z,17.78
2024-05-09T06:46:29.998Z,17.89
2024-05-09T06:47:30.070Z,17.93
2024-05-09T06:48:30.189Z,17.99
2024-05-09T06:49:30.216Z,17.97
2024-05-09T06:50:35.785Z,18.10
2024-05-09T06:51:29.961Z,18.12
2024-05-09T06:52:29.983Z,18.15
2024-05-09T06:53:29.992Z,18.14
2024-05-09T06:54:29.960Z,18.15
2024-05-09T06:55:29.950Z,18.20
2024-05-09T06:56:30.116Z,18.26
2024-05-09T06:57:29.954Z,18.26
2024-05-09T06:58:29.948Z,18.37
2024-05-09T06:59:30.112Z,18.30
2024-05-09T07:00:35.631Z,18.48
2024-05-09T07:01:30.046Z,18.51
2024-05-09T07:02:30.058Z,18.48
2024-05-09T07:03:30.054Z,18.47
2024-05-09T07:04:30.032Z,18.45
2024-05-09T07:05:29.956Z,18.44
2024-05-09T07:06:29.946Z,18.44
2024-05-09T07:07:29.941Z,18.62
2024-05-09T07:08:29.982Z,18.62
2024-05-09T07:09:29.940Z,18.76
2024-05-09T07:10:34.825Z,18.70
2024-05-09T07:11:30.008Z,18.90
2024-05-09T07:12:30.184Z,18.99
2024-05-09T07:13:29.938Z,18.99
2024-05-09T07:14:30.280Z,19.14
2024-05-09T07:15:29.929Z,19.29
2024-05-09T07:16:29.931Z,19.47
2024-05-09T07:17:30.204Z,19.56
2024-05-09T07:18:30.130Z,19.74
2024-05-09T07:19:30.010Z,19.83
2024-05-09T07:20:34.510Z,20.03
2024-05-09T07:21:29.937Z,20.26
2024-05-09T07:22:29.958Z,20.85
2024-05-09T07:23:29.963Z,21.29
2024-05-09T07:24:29.956Z,21.86
2024-05-09T07:25:30.479Z,22.52
2024-05-09T07:26:30.032Z,23.12
2024-05-09T07:27:29.962Z,23.69
2024-05-09T07:28:29.928Z,24.43
2024-05-09T07:29:30.013Z,25.17
2024-05-09T07:30:33.597Z,25.70
2024-05-09T07:31:29.935Z,26.32
2024-05-09T07:32:30.112Z,26.77
2024-05-09T07:33:30.099Z,27.21
2024-05-09T07:34:30.014Z,27.62
2024-05-09T07:35:30.378Z,27.92
2024-05-09T07:36:29.945Z,28.21
2024-05-09T07:37:29.941Z,28.52
2024-05-09T07:38:29.959Z,29.02
2024-05-09T07:39:29.943Z,29.27
2024-05-09T07:40:35.643Z,29.57
2024-05-09T07:41:30.028Z,29.65
2024-05-09T07:42:29.961Z,30.00
2024-05-09T07:43:29.950Z,30.20
2024-05-09T07:44:30.115Z,30.24
2024-05-09T07:45:46.003Z,30.42
2024-05-09T07:47:36.966Z,30.58
2024-05-09T07:48:57.192Z,30.61
2024-05-09T07:50:01.200Z,30.79
2024-05-09T07:53:08.258Z,31.17
2024-05-09T07:53:32.604Z,31.43
2024-05-09T07:53:40.304Z,31.57
2024-05-09T07:54:30.210Z,31.81
2024-05-09T07:55:30.282Z,31.78
2024-05-09T07:56:30.548Z,31.88
2024-05-09T07:57:30.019Z,32.15
2024-05-09T07:58:30.007Z,32.37
2024-05-09T07:59:31.326Z,32.45
2024-05-09T08:00:31.830Z,32.65
2024-05-09T08:01:30.115Z,32.77
2024-05-09T08:02:30.211Z,32.84
2024-05-09T08:03:30.170Z,32.79
2024-05-09T08:04:30.136Z,32.89
2024-05-09T08:05:30.231Z,32.92
2024-05-09T08:06:30.103Z,32.93
2024-05-09T08:07:30.056Z,32.66
2024-05-09T08:08:30.493Z,32.62
2024-05-09T08:09:30.131Z,32.35
2024-05-09T08:10:30.097Z,32.29
2024-05-09T08:11:30.105Z,32.22
2024-05-09T08:12:30.118Z,32.11
2024-05-09T08:13:30.071Z,32.18
2024-05-09T08:14:30.094Z,32.19
2024-05-09T08:15:30.108Z,32.13
2024-05-09T08:16:30.123Z,32.00
2024-05-09T08:17:30.145Z,32.00
2024-05-09T08:18:30.467Z,31.84
2024-05-09T08:19:30.138Z,31.75
2024-05-09T08:20:33.709Z,31.58
2024-05-09T08:21:30.141Z,31.65
2024-05-09T08:22:30.102Z,31.61
2024-05-09T08:23:30.109Z,31.56
2024-05-09T08:24:30.169Z,31.43
2024-05-09T08:25:30.115Z,31.46
2024-05-09T08:26:30.117Z,31.47
2024-05-09T08:27:30.148Z,31.36
2024-05-09T08:28:30.185Z,31.35
2024-05-09T08:29:30.134Z,31.38
2024-05-09T08:30:36.332Z,31.14
2024-05-09T08:31:30.315Z,31.17
2024-05-09T08:32:30.253Z,31.16
2024-05-09T08:33:30.494Z,31.17
2024-05-09T08:34:30.269Z,31.35
2024-05-09T08:35:30.152Z,31.36
2024-05-09T08:36:30.224Z,31.38
2024-05-09T08:37:35.000Z,31.38
2024-05-09T08:38:30.178Z,31.61
2024-05-09T08:39:30.221Z,31.65
2024-05-09T08:40:34.482Z,31.66
2024-05-09T08:41:30.185Z,31.85
2024-05-09T08:42:30.212Z,32.08
2024-05-09T08:43:30.286Z,32.07
2024-05-09T08:44:30.223Z,32.23
2024-05-09T08:45:30.400Z,32.18
2024-05-09T08:46:30.355Z,32.13
2024-05-09T08:47:30.339Z,32.08
2024-05-09T08:48:30.594Z,32.06
2024-05-09T08:49:30.336Z,31.96
2024-05-09T08:50:37.712Z,32.01
2024-05-09T08:51:30.335Z,32.28
2024-05-09T08:52:30.246Z,32.52
2024-05-09T08:53:30.247Z,32.66
2024-05-09T08:54:30.353Z,32.69
2024-05-09T08:55:30.277Z,32.94
2024-05-09T08:56:30.279Z,33.04
2024-05-09T08:57:30.283Z,33.11
2024-05-09T08:58:30.277Z,32.97
2024-05-09T08:59:30.281Z,32.69
2024-05-09T09:00:36.563Z,32.15
2024-05-09T09:01:30.388Z,31.54
2024-05-09T09:02:30.510Z,31.16
2024-05-09T09:03:30.867Z,30.86
2024-05-09T09:04:30.506Z,30.62
2024-05-09T09:05:30.454Z,30.29
2024-05-09T09:06:30.395Z,29.94
2024-05-09T09:07:30.379Z,29.71
2024-05-09T09:08:30.337Z,29.51
2024-05-09T09:09:30.459Z,29.19
2024-05-09T09:10:32.391Z,29.02
2024-05-09T09:11:30.391Z,28.67
2024-05-09T09:12:30.458Z,28.48
2024-05-09T09:13:30.389Z,28.31
2024-05-09T09:14:30.367Z,28.25
2024-05-09T09:15:30.424Z,28.15
2024-05-09T09:16:30.416Z,28.06
2024-05-09T09:17:30.458Z,27.85
2024-05-09T09:18:31.039Z,27.75
2024-05-09T09:19:30.429Z,27.69
2024-05-09T09:20:36.355Z,27.65
2024-05-09T09:21:30.455Z,27.55
2024-05-09T09:22:30.410Z,27.59
2024-05-09T09:23:30.837Z,27.51
2024-05-09T09:24:30.440Z,27.24
2024-05-09T09:25:30.417Z,27.13
2024-05-09T09:26:30.430Z,26.84
2024-05-09T09:27:30.448Z,26.63
2024-05-09T09:28:30.427Z,26.35
2024-05-09T09:29:30.425Z,26.25
2024-05-09T09:30:36.740Z,26.23
2024-05-09T09:31:30.603Z,26.32
2024-05-09T09:32:30.609Z,26.50
2024-05-09T09:33:30.512Z,26.52
2024-05-09T09:34:30.642Z,26.57
2024-05-09T09:35:30.475Z,26.65
2024-05-09T09:36:30.487Z,26.73
2024-05-09T09:37:30.464Z,26.80
2024-05-09T09:38:30.461Z,26.94
2024-05-09T09:39:30.511Z,27.07
2024-05-09T09:40:32.962Z,27.12
2024-05-09T09:41:30.467Z,27.14
2024-05-09T09:42:30.525Z,27.25
2024-05-09T09:43:30.489Z,27.37
2024-05-09T09:44:30.478Z,27.25
2024-05-09T09:45:30.533Z,27.17
2024-05-09T09:46:30.525Z,27.21
2024-05-09T09:47:30.589Z,27.13
2024-05-09T09:48:30.867Z,27.13
2024-05-09T09:49:30.502Z,27.00
2024-05-09T09:50:34.482Z,26.89
2024-05-09T09:51:30.541Z,26.81
2024-05-09T09:52:30.520Z,26.70
2024-05-09T09:53:30.492Z,26.62
2024-05-09T09:54:30.558Z,26.50
2024-05-09T09:55:30.500Z,26.60
2024-05-09T09:56:30.530Z,26.58
2024-05-09T09:57:30.540Z,26.60
2024-05-09T09:58:30.576Z,26.63
2024-05-09T09:59:30.504Z,26.66
2024-05-09T10:00:33.254Z,26.51
2024-05-09T10:01:30.582Z,26.51
2024-05-09T10:02:30.694Z,26.36
2024-05-09T10:03:30.704Z,26.10
2024-05-09T10:04:30.635Z,26.12
2024-05-09T10:05:31.052Z,25.80
2024-05-09T10:06:30.610Z,25.70
2024-05-09T10:07:30.535Z,25.72
2024-05-09T10:08:30.516Z,25.79
2024-05-09T10:09:30.631Z,25.90
2024-05-09T10:10:32.887Z,25.90
2024-05-09T10:11:31.676Z,25.95
2024-05-09T10:12:30.622Z,25.92
2024-05-09T10:13:30.571Z,25.95
2024-05-09T10:14:30.535Z,25.98
2024-05-09T10:15:30.599Z,25.95
2024-05-09T10:16:30.598Z,25.92
2024-05-09T10:17:30.624Z,25.91
2024-05-09T10:18:32.756Z,25.92
2024-05-09T10:19:30.643Z,26.07
2024-05-09T10:21:30.606Z,26.12
2024-05-09T10:22:30.583Z,26.30
2024-05-09T10:23:30.627Z,26.32
2024-05-09T10:24:30.632Z,26.33
2024-05-09T10:25:30.607Z,26.33
2024-05-09T10:26:30.556Z,26.35
2024-05-09T10:27:30.688Z,26.23
2024-05-09T10:28:30.626Z,26.30
2024-05-09T10:29:30.559Z,26.23
2024-05-09T10:30:35.817Z,26.25
2024-05-09T10:31:30.600Z,26.30
2024-05-09T10:32:30.667Z,26.12
2024-05-09T10:33:30.800Z,26.18
2024-05-09T10:34:30.653Z,26.26
2024-05-09T10:35:30.564Z,26.43
2024-05-09T10:36:30.681Z,26.55
2024-05-09T10:37:30.695Z,26.52
2024-05-09T10:38:30.585Z,26.58
2024-05-09T10:39:30.615Z,26.62
2024-05-09T10:40:31.844Z,26.65
2024-05-09T10:41:30.599Z,26.66
2024-05-09T10:42:30.630Z,26.76
2024-05-09T10:43:30.659Z,26.84
2024-05-09T10:44:30.600Z,26.80
2024-05-09T10:45:30.628Z,26.92
2024-05-09T10:46:30.699Z,26.89
2024-05-09T10:47:30.633Z,27.06
2024-05-09T10:48:30.673Z,27.18
2024-05-09T10:49:30.610Z,27.28
2024-05-09T10:50:34.164Z,27.28
2024-05-09T10:51:30.643Z,27.37
2024-05-09T10:52:30.612Z,27.32
2024-05-09T10:53:30.626Z,27.37
2024-05-09T10:54:30.618Z,27.32
2024-05-09T10:55:30.638Z,27.29
2024-05-09T10:56:30.631Z,27.17
2024-05-09T10:57:30.649Z,27.19
2024-05-09T10:58:30.606Z,27.25
2024-05-09T10:59:30.604Z,27.36
2024-05-09T11:00:35.657Z,27.41
2024-05-09T11:01:30.686Z,27.54
2024-05-09T11:02:30.748Z,27.47
2024-05-09T11:03:30.790Z,27.54
2024-05-09T11:04:30.694Z,27.57
2024-05-09T11:05:30.701Z,27.51
2024-05-09T11:06:30.660Z,27.51
2024-05-09T11:07:30.738Z,27.57
2024-05-09T11:08:30.633Z,27.29
2024-05-09T11:09:30.674Z,27.25
2024-05-09T11:10:33.987Z,27.10
2024-05-09T11:11:30.649Z,27.03
2024-05-09T11:12:30.638Z,27.02
2024-05-09T11:13:30.819Z,27.06
2024-05-09T11:14:30.628Z,27.12
2024-05-09T11:15:30.736Z,27.13
2024-05-09T11:16:30.683Z,27.18
2024-05-09T11:17:30.767Z,27.24
2024-05-09T11:18:34.654Z,27.04
2024-05-09T11:19:30.698Z,26.67
2024-05-09T11:20:34.786Z,26.54
2024-05-09T11:21:30.655Z,26.51
2024-05-09T11:22:30.640Z,26.54
2024-05-09T11:23:31.047Z,26.47
2024-05-09T11:24:30.695Z,26.51
2024-05-09T11:25:30.651Z,26.65
2024-05-09T11:26:30.647Z,26.63
2024-05-09T11:27:30.666Z,26.67
2024-05-09T11:28:30.645Z,26.80
2024-05-09T11:29:30.658Z,26.77
2024-05-09T11:30:32.330Z,26.73
2024-05-09T11:31:30.726Z,26.72
2024-05-09T11:32:30.860Z,26.72
2024-05-09T11:33:30.776Z,26.69
2024-05-09T11:34:30.705Z,26.70
2024-05-09T11:35:30.673Z,26.67
2024-05-09T11:36:30.685Z,26.65
2024-05-09T11:37:31.340Z,26.50
2024-05-09T11:38:30.659Z,26.44
2024-05-09T11:39:30.694Z,26.47
2024-05-09T11:40:34.247Z,26.60
2024-05-09T11:41:30.672Z,26.62
2024-05-09T11:42:30.775Z,26.58
2024-05-09T11:43:30.854Z,26.57
2024-05-09T11:44:30.695Z,26.65
2024-05-09T11:45:30.717Z,26.54
2024-05-09T11:46:30.721Z,26.58
2024-05-09T11:47:30.736Z,26.54
2024-05-09T11:48:30.968Z,26.50
2024-05-09T11:49:30.849Z,26.44
2024-05-09T11:50:35.288Z,26.43
2024-05-09T11:51:30.722Z,26.52
2024-05-09T11:52:30.683Z,26.60
2024-05-09T11:53:30.687Z,26.75
2024-05-09T11:54:30.736Z,26.89
2024-05-09T11:55:30.891Z,26.92
2024-05-09T11:56:30.698Z,27.09
2024-05-09T11:57:30.731Z,27.21
2024-05-09T11:58:30.699Z,27.32
2024-05-09T11:59:30.703Z,27.40
2024-05-09T12:00:36.606Z,27.54
2024-05-09T12:01:30.838Z,27.66
2024-05-09T12:02:30.843Z,27.77
2024-05-09T12:03:30.884Z,27.96
2024-05-09T12:04:30.809Z,28.03
2024-05-09T12:05:30.836Z,28.14
2024-05-09T12:06:30.795Z,28.24
2024-05-09T12:07:30.732Z,28.31
2024-05-09T12:08:30.721Z,28.44
2024-05-09T12:09:30.760Z,28.43
2024-05-09T12:10:33.861Z,28.43
2024-05-09T12:11:30.799Z,28.48
2024-05-09T12:12:30.774Z,28.41
2024-05-09T12:13:30.768Z,28.41
2024-05-09T12:14:30.727Z,28.49
2024-05-09T12:15:30.756Z,28.51
2024-05-09T12:16:30.792Z,28.52
2024-05-09T12:17:30.916Z,28.40
2024-05-09T12:18:30.851Z,28.48
2024-05-09T12:19:30.760Z,28.44
2024-05-09T12:21:30.795Z,28.66
2024-05-09T12:22:30.755Z,28.78
2024-05-09T12:23:30.744Z,29.16
2024-05-09T12:24:30.806Z,29.18
2024-05-09T12:25:30.750Z,29.53
2024-05-09T12:26:30.747Z,29.79
2024-05-09T12:27:30.768Z,29.98
2024-05-09T12:28:30.787Z,30.32
2024-05-09T12:29:30.757Z,30.39
2024-05-09T12:30:36.717Z,30.57
2024-05-09T12:31:30.863Z,30.55
2024-05-09T12:32:30.889Z,30.54
2024-05-09T12:33:30.863Z,30.67
2024-05-09T12:34:30.846Z,30.65
2024-05-09T12:35:30.777Z,30.76
2024-05-09T12:36:30.857Z,30.83
2024-05-09T12:37:30.783Z,30.92
2024-05-09T12:38:30.781Z,31.10
2024-05-09T12:39:30.877Z,31.09
2024-05-09T12:40:35.871Z,31.25
2024-05-09T12:41:30.797Z,31.36
2024-05-09T12:42:33.260Z,31.53
2024-05-09T12:43:30.887Z,31.53
2024-05-09T12:44:30.805Z,31.65
2024-05-09T12:45:30.951Z,31.68
2024-05-09T12:46:30.895Z,31.72
2024-05-09T12:47:30.881Z,31.92
2024-05-09T12:48:30.906Z,31.99
2024-05-09T12:49:30.970Z,31.99
2024-05-09T12:50:33.367Z,31.96
2024-05-09T12:51:30.831Z,31.96
2024-05-09T12:52:30.828Z,31.99
2024-05-09T12:53:30.841Z,32.01
2024-05-09T12:54:30.866Z,31.93
2024-05-09T12:55:37.242Z,32.00
2024-05-09T12:56:30.852Z,32.00
2024-05-09T12:57:30.898Z,32.04
2024-05-09T12:58:30.835Z,32.10